sensor_id;sensor_type;location;lat;lon;timestamp;P1;durP1;ratioP1;P2;durP2;ratioP2
23370;SDS011;11858;51.056;3.712;2023-06-26T00:00:14;17.83;;;16.60;;
23370;SDS011;11858;51.056;3.712;2023-06-26T00:02:40;18.35;;;16.98;;
23370;SDS011;11858;51.056;3.712;2023-06-26T00:05:06;16.83;;;15.73;;
23370;SDS011;11858;51.056;3.712;2023-06-26T00:07:31;17.55;;;16.35;;
23370;SDS011;11858;51.056;3.712;2023-06-26T00:09:59;16.85;;;15.75;;
23370;SDS011;11858;51.056;3.712;2023-06-26T00:12:25;19.73;;;18.13;;
23370;SDS011;11858;51.056;3.712;2023-06-26T00:14:51;18.80;;;17.38;;
23370;SDS011;11858;51.056;3.712;2023-06-26T00:17:17;18.05;;;16.70;;
23370;SDS011;11858;51.056;3.712;2023-06-26T00:19:43;17.77;;;16.58;;
23370;SDS011;11858;51.056;3.712;2023-06-26T00:22:08;17.80;;;16.52;;
23370;SDS011;11858;51.056;3.712;2023-06-26T00:24:34;16.55;;;15.45;;
23370;SDS011;11858;51.056;3.712;2023-06-26T00:27:00;16.67;;;15.57;;
23370;SDS011;11858;51.056;3.712;2023-06-26T00:29:25;18.88;;;17.45;;
23370;SDS011;11858;51.056;3.712;2023-06-26T00:31:51;17.00;;;15.90;;
23370;SDS011;11858;51.056;3.712;2023-06-26T00:34:17;16.70;;;15.60;;
23370;SDS011;11858;51.056;3.712;2023-06-26T00:36:42;16.77;;;15.68;;
23370;SDS011;11858;51.056;3.712;2023-06-26T00:39:09;16.85;;;15.75;;
23370;SDS011;11858;51.056;3.712;2023-06-26T00:41:35;16.33;;;15.32;;
23370;SDS011;11858;51.056;3.712;2023-06-26T00:44:04;16.60;;;15.57;;
23370;SDS011;11858;51.056;3.712;2023-06-26T00:46:31;15.93;;;14.93;;
23370;SDS011;11858;51.056;3.712;2023-06-26T00:48:58;15.55;;;14.63;;
23370;SDS011;11858;51.056;3.712;2023-06-26T00:51:25;16.20;;;15.20;;
23370;SDS011;11858;51.056;3.712;2023-06-26T00:53:53;16.17;;;15.18;;
23370;SDS011;11858;51.056;3.712;2023-06-26T00:56:19;16.15;;;15.15;;
23370;SDS011;11858;51.056;3.712;2023-06-26T00:58:45;17.17;;;16.02;;
23370;SDS011;11858;51.056;3.712;2023-06-26T01:01:11;18.20;;;15.55;;
23370;SDS011;11858;51.056;3.712;2023-06-26T01:06:11;16.65;;;15.55;;
23370;SDS011;11858;51.056;3.712;2023-06-26T01:08:39;15.90;;;14.90;;
23370;SDS011;11858;51.056;3.712;2023-06-26T01:11:06;16.55;;;15.45;;
23370;SDS011;11858;51.056;3.712;2023-06-26T01:13:32;15.70;;;14.70;;
23370;SDS011;11858;51.056;3.712;2023-06-26T01:15:59;16.00;;;14.95;;
23370;SDS011;11858;51.056;3.712;2023-06-26T01:18:25;15.57;;;14.63;;
23370;SDS011;11858;51.056;3.712;2023-06-26T01:20:51;15.32;;;14.43;;
23370;SDS011;11858;51.056;3.712;2023-06-26T01:23:22;16.33;;;15.20;;
23370;SDS011;11858;51.056;3.712;2023-06-26T01:28:41;16.63;;;15.25;;
23370;SDS011;11858;51.056;3.712;2023-06-26T01:31:08;16.02;;;14.60;;
23370;SDS011;11858;51.056;3.712;2023-06-26T01:33:35;16.40;;;15.07;;
23370;SDS011;11858;51.056;3.712;2023-06-26T01:36:01;14.55;;;13.65;;
23370;SDS011;11858;51.056;3.712;2023-06-26T01:38:28;14.63;;;13.63;;
23370;SDS011;11858;51.056;3.712;2023-06-26T01:40:53;14.70;;;13.57;;
23370;SDS011;11858;51.056;3.712;2023-06-26T01:46:05;16.65;;;14.85;;
23370;SDS011;11858;51.056;3.712;2023-06-26T01:48:45;12.95;;;12.20;;
23370;SDS011;11858;51.056;3.712;2023-06-26T01:51:18;12.57;;;11.88;;
23370;SDS011;11858;51.056;3.712;2023-06-26T01:53:47;12.35;;;11.63;;
23370;SDS011;11858;51.056;3.712;2023-06-26T01:56:17;13.32;;;12.43;;
23370;SDS011;11858;51.056;3.712;2023-06-26T01:58:45;13.30;;;12.30;;
23370;SDS011;11858;51.056;3.712;2023-06-26T02:01:12;13.32;;;12.00;;
23370;SDS011;11858;51.056;3.712;2023-06-26T02:03:38;11.52;;;10.93;;
23370;SDS011;11858;51.056;3.712;2023-06-26T02:06:03;12.43;;;11.45;;
23370;SDS011;11858;51.056;3.712;2023-06-26T02:08:29;11.77;;;10.98;;
23370;SDS011;11858;51.056;3.712;2023-06-26T02:10:54;10.68;;;10.07;;
23370;SDS011;11858;51.056;3.712;2023-06-26T02:13:20;10.50;;;9.90;;
23370;SDS011;11858;51.056;3.712;2023-06-26T02:15:46;14.82;;;11.70;;
23370;SDS011;11858;51.056;3.712;2023-06-26T02:18:11;10.68;;;9.98;;
23370;SDS011;11858;51.056;3.712;2023-06-26T02:20:37;11.70;;;10.57;;
23370;SDS011;11858;51.056;3.712;2023-06-26T02:23:02;10.68;;;9.63;;
23370;SDS011;11858;51.056;3.712;2023-06-26T02:25:28;11.15;;;10.35;;
23370;SDS011;11858;51.056;3.712;2023-06-26T02:27:54;12.43;;;10.80;;
23370;SDS011;11858;51.056;3.712;2023-06-26T02:30:20;10.05;;;9.25;;
23370;SDS011;11858;51.056;3.712;2023-06-26T02:32:45;12.43;;;10.38;;
23370;SDS011;11858;51.056;3.712;2023-06-26T02:35:11;7.90;;;7.50;;
23370;SDS011;11858;51.056;3.712;2023-06-26T02:37:36;11.55;;;9.27;;
23370;SDS011;11858;51.056;3.712;2023-06-26T02:40:02;11.30;;;10.15;;
23370;SDS011;11858;51.056;3.712;2023-06-26T02:42:29;9.25;;;8.55;;
23370;SDS011;11858;51.056;3.712;2023-06-26T02:44:56;12.07;;;9.77;;
23370;SDS011;11858;51.056;3.712;2023-06-26T02:47:22;9.70;;;9.07;;
23370;SDS011;11858;51.056;3.712;2023-06-26T02:49:47;7.47;;;7.07;;
23370;SDS011;11858;51.056;3.712;2023-06-26T02:52:13;9.45;;;8.65;;
23370;SDS011;11858;51.056;3.712;2023-06-26T02:54:39;7.63;;;7.22;;
23370;SDS011;11858;51.056;3.712;2023-06-26T02:57:04;8.00;;;7.50;;
23370;SDS011;11858;51.056;3.712;2023-06-26T02:59:30;7.40;;;7.00;;
23370;SDS011;11858;51.056;3.712;2023-06-26T03:01:56;7.65;;;7.25;;
23370;SDS011;11858;51.056;3.712;2023-06-26T03:04:21;8.38;;;7.68;;
23370;SDS011;11858;51.056;3.712;2023-06-26T03:06:47;7.53;;;7.13;;
23370;SDS011;11858;51.056;3.712;2023-06-26T03:09:13;7.70;;;7.22;;
23370;SDS011;11858;51.056;3.712;2023-06-26T03:11:38;10.10;;;7.32;;
23370;SDS011;11858;51.056;3.712;2023-06-26T03:14:04;8.70;;;8.10;;
23370;SDS011;11858;51.056;3.712;2023-06-26T03:16:29;8.00;;;7.50;;
23370;SDS011;11858;51.056;3.712;2023-06-26T03:18:55;7.80;;;7.40;;
23370;SDS011;11858;51.056;3.712;2023-06-26T03:21:21;7.50;;;7.10;;
23370;SDS011;11858;51.056;3.712;2023-06-26T03:23:46;8.00;;;7.60;;
23370;SDS011;11858;51.056;3.712;2023-06-26T03:26:12;9.00;;;8.23;;
23370;SDS011;11858;51.056;3.712;2023-06-26T03:28:39;9.00;;;8.50;;
23370;SDS011;11858;51.056;3.712;2023-06-26T03:31:05;8.65;;;8.15;;
23370;SDS011;11858;51.056;3.712;2023-06-26T03:33:31;7.65;;;7.25;;
23370;SDS011;11858;51.056;3.712;2023-06-26T03:35:57;7.97;;;7.57;;
23370;SDS011;11858;51.056;3.712;2023-06-26T03:38:24;8.98;;;8.15;;
23370;SDS011;11858;51.056;3.712;2023-06-26T03:40:51;9.25;;;8.65;;
23370;SDS011;11858;51.056;3.712;2023-06-26T03:43:17;14.75;;;9.73;;
23370;SDS011;11858;51.056;3.712;2023-06-26T03:45:42;7.85;;;7.45;;
23370;SDS011;11858;51.056;3.712;2023-06-26T03:48:08;16.48;;;9.80;;
23370;SDS011;11858;51.056;3.712;2023-06-26T03:50:34;7.50;;;7.10;;
23370;SDS011;11858;51.056;3.712;2023-06-26T03:52:59;8.38;;;7.35;;
23370;SDS011;11858;51.056;3.712;2023-06-26T03:55:25;6.53;;;6.22;;
23370;SDS011;11858;51.056;3.712;2023-06-26T03:57:50;6.50;;;6.20;;
23370;SDS011;11858;51.056;3.712;2023-06-26T04:00:16;6.90;;;6.60;;
23370;SDS011;11858;51.056;3.712;2023-06-26T04:02:42;15.43;;;7.90;;
23370;SDS011;11858;51.056;3.712;2023-06-26T04:05:08;14.07;;;8.65;;
23370;SDS011;11858;51.056;3.712;2023-06-26T04:07:34;6.80;;;6.50;;
23370;SDS011;11858;51.056;3.712;2023-06-26T04:10:00;6.97;;;6.57;;
23370;SDS011;11858;51.056;3.712;2023-06-26T04:12:26;7.22;;;6.88;;
23370;SDS011;11858;51.056;3.712;2023-06-26T04:14:52;19.02;;;8.63;;
23370;SDS011;11858;51.056;3.712;2023-06-26T04:17:18;8.95;;;8.45;;
23370;SDS011;11858;51.056;3.712;2023-06-26T04:19:43;9.38;;;8.68;;
23370;SDS011;11858;51.056;3.712;2023-06-26T04:22:09;7.90;;;7.50;;
23370;SDS011;11858;51.056;3.712;2023-06-26T04:24:35;9.07;;;8.38;;
23370;SDS011;11858;51.056;3.712;2023-06-26T04:27:00;7.90;;;7.50;;
23370;SDS011;11858;51.056;3.712;2023-06-26T04:29:26;10.82;;;9.77;;
23370;SDS011;11858;51.056;3.712;2023-06-26T04:31:52;9.55;;;8.75;;
23370;SDS011;11858;51.056;3.712;2023-06-26T04:34:23;9.00;;;8.50;;
23370;SDS011;11858;51.056;3.712;2023-06-26T04:36:52;9.18;;;8.68;;
23370;SDS011;11858;51.056;3.712;2023-06-26T04:39:19;9.60;;;8.95;;
23370;SDS011;11858;51.056;3.712;2023-06-26T04:41:44;11.63;;;10.25;;
23370;SDS011;11858;51.056;3.712;2023-06-26T04:44:10;9.48;;;8.98;;
23370;SDS011;11858;51.056;3.712;2023-06-26T04:46:36;9.25;;;8.75;;
23370;SDS011;11858;51.056;3.712;2023-06-26T04:49:06;9.70;;;9.20;;
23370;SDS011;11858;51.056;3.712;2023-06-26T04:51:34;9.32;;;8.82;;
23370;SDS011;11858;51.056;3.712;2023-06-26T04:56:34;10.90;;;10.30;;
23370;SDS011;11858;51.056;3.712;2023-06-26T04:59:00;10.00;;;9.50;;
23370;SDS011;11858;51.056;3.712;2023-06-26T05:01:26;10.20;;;9.70;;
23370;SDS011;11858;51.056;3.712;2023-06-26T05:03:58;10.30;;;9.80;;
23370;SDS011;11858;51.056;3.712;2023-06-26T05:06:24;10.02;;;9.45;;
23370;SDS011;11858;51.056;3.712;2023-06-26T05:08:49;10.45;;;9.90;;
23370;SDS011;11858;51.056;3.712;2023-06-26T05:11:15;17.13;;;11.30;;
23370;SDS011;11858;51.056;3.712;2023-06-26T05:13:41;10.30;;;9.80;;
23370;SDS011;11858;51.056;3.712;2023-06-26T05:16:07;12.52;;;11.57;;
23370;SDS011;11858;51.056;3.712;2023-06-26T05:18:34;12.20;;;11.50;;
23370;SDS011;11858;51.056;3.712;2023-06-26T05:21:00;13.07;;;12.18;;
23370;SDS011;11858;51.056;3.712;2023-06-26T05:23:26;13.82;;;12.80;;
23370;SDS011;11858;51.056;3.712;2023-06-26T05:25:55;11.50;;;10.90;;
23370;SDS011;11858;51.056;3.712;2023-06-26T05:28:21;11.75;;;11.07;;
23370;SDS011;11858;51.056;3.712;2023-06-26T05:30:49;12.02;;;11.38;;
23370;SDS011;11858;51.056;3.712;2023-06-26T05:33:15;12.65;;;11.85;;
23370;SDS011;11858;51.056;3.712;2023-06-26T05:35:44;11.50;;;10.90;;
23370;SDS011;11858;51.056;3.712;2023-06-26T05:38:12;12.68;;;11.80;;
23370;SDS011;11858;51.056;3.712;2023-06-26T05:40:39;11.63;;;11.02;;
23370;SDS011;11858;51.056;3.712;2023-06-26T05:43:05;12.00;;;11.27;;
23370;SDS011;11858;51.056;3.712;2023-06-26T05:45:32;11.40;;;10.80;;
23370;SDS011;11858;51.056;3.712;2023-06-26T05:47:57;11.40;;;10.80;;
23370;SDS011;11858;51.056;3.712;2023-06-26T05:50:23;11.73;;;10.93;;
23370;SDS011;11858;51.056;3.712;2023-06-26T05:52:50;11.00;;;10.40;;
23370;SDS011;11858;51.056;3.712;2023-06-26T05:55:16;10.85;;;10.25;;
23370;SDS011;11858;51.056;3.712;2023-06-26T05:57:42;10.90;;;10.30;;
23370;SDS011;11858;51.056;3.712;2023-06-26T06:00:10;11.50;;;10.90;;
23370;SDS011;11858;51.056;3.712;2023-06-26T06:02:37;11.65;;;11.05;;
23370;SDS011;11858;51.056;3.712;2023-06-26T06:05:04;11.98;;;11.15;;
23370;SDS011;11858;51.056;3.712;2023-06-26T06:07:32;12.32;;;11.63;;
23370;SDS011;11858;51.056;3.712;2023-06-26T06:09:58;12.43;;;11.73;;
23370;SDS011;11858;51.056;3.712;2023-06-26T06:12:24;12.18;;;11.48;;
23370;SDS011;11858;51.056;3.712;2023-06-26T06:14:51;12.63;;;11.60;;
23370;SDS011;11858;51.056;3.712;2023-06-26T06:17:17;12.40;;;11.63;;
23370;SDS011;11858;51.056;3.712;2023-06-26T06:19:43;12.30;;;11.60;;
23370;SDS011;11858;51.056;3.712;2023-06-26T06:22:10;11.90;;;11.27;;
23370;SDS011;11858;51.056;3.712;2023-06-26T06:24:35;11.85;;;11.18;;
23370;SDS011;11858;51.056;3.712;2023-06-26T06:27:01;12.55;;;11.75;;
23370;SDS011;11858;51.056;3.712;2023-06-26T06:29:27;12.60;;;11.90;;
23370;SDS011;11858;51.056;3.712;2023-06-26T06:31:52;12.38;;;11.68;;
23370;SDS011;11858;51.056;3.712;2023-06-26T06:34:18;12.90;;;12.20;;
23370;SDS011;11858;51.056;3.712;2023-06-26T06:36:44;12.73;;;12.02;;
23370;SDS011;11858;51.056;3.712;2023-06-26T06:39:09;12.52;;;11.77;;
23370;SDS011;11858;51.056;3.712;2023-06-26T06:41:35;13.10;;;12.40;;
23370;SDS011;11858;51.056;3.712;2023-06-26T06:44:01;13.50;;;12.60;;
23370;SDS011;11858;51.056;3.712;2023-06-26T06:46:26;12.90;;;12.20;;
23370;SDS011;11858;51.056;3.712;2023-06-26T06:48:52;12.70;;;12.00;;
23370;SDS011;11858;51.056;3.712;2023-06-26T06:51:18;13.70;;;12.90;;
23370;SDS011;11858;51.056;3.712;2023-06-26T06:53:44;14.27;;;13.25;;
23370;SDS011;11858;51.056;3.712;2023-06-26T06:56:09;14.20;;;13.40;;
23370;SDS011;11858;51.056;3.712;2023-06-26T06:58:35;13.90;;;13.10;;
23370;SDS011;11858;51.056;3.712;2023-06-26T07:01:01;14.15;;;13.35;;
23370;SDS011;11858;51.056;3.712;2023-06-26T07:03:29;14.38;;;13.50;;
23370;SDS011;11858;51.056;3.712;2023-06-26T07:05:55;14.07;;;13.20;;
23370;SDS011;11858;51.056;3.712;2023-06-26T07:08:21;14.15;;;13.35;;
23370;SDS011;11858;51.056;3.712;2023-06-26T07:10:46;14.35;;;13.55;;
23370;SDS011;11858;51.056;3.712;2023-06-26T07:13:12;13.88;;;13.07;;
23370;SDS011;11858;51.056;3.712;2023-06-26T07:15:38;14.30;;;13.50;;
23370;SDS011;11858;51.056;3.712;2023-06-26T07:18:03;13.75;;;12.95;;
23370;SDS011;11858;51.056;3.712;2023-06-26T07:20:29;13.13;;;12.43;;
23370;SDS011;11858;51.056;3.712;2023-06-26T07:22:55;13.93;;;13.13;;
23370;SDS011;11858;51.056;3.712;2023-06-26T07:25:20;14.13;;;13.32;;
23370;SDS011;11858;51.056;3.712;2023-06-26T07:27:46;14.00;;;13.20;;
23370;SDS011;11858;51.056;3.712;2023-06-26T07:30:12;14.18;;;13.38;;
23370;SDS011;11858;51.056;3.712;2023-06-26T07:32:38;13.77;;;12.98;;
23370;SDS011;11858;51.056;3.712;2023-06-26T07:35:05;14.02;;;13.23;;
23370;SDS011;11858;51.056;3.712;2023-06-26T07:37:31;15.00;;;14.20;;
23370;SDS011;11858;51.056;3.712;2023-06-26T07:39:57;14.25;;;13.35;;
23370;SDS011;11858;51.056;3.712;2023-06-26T07:42:23;14.98;;;14.07;;
23370;SDS011;11858;51.056;3.712;2023-06-26T07:44:48;14.73;;;13.93;;
23370;SDS011;11858;51.056;3.712;2023-06-26T07:47:14;15.40;;;14.50;;
23370;SDS011;11858;51.056;3.712;2023-06-26T07:49:40;15.23;;;14.32;;
23370;SDS011;11858;51.056;3.712;2023-06-26T07:52:05;15.30;;;14.40;;
23370;SDS011;11858;51.056;3.712;2023-06-26T07:54:32;15.38;;;14.48;;
23370;SDS011;11858;51.056;3.712;2023-06-26T07:59:25;14.60;;;13.70;;
23370;SDS011;11858;51.056;3.712;2023-06-26T08:01:52;15.63;;;14.73;;
23370;SDS011;11858;51.056;3.712;2023-06-26T08:04:19;16.83;;;15.63;;
23370;SDS011;11858;51.056;3.712;2023-06-26T08:06:49;16.63;;;15.50;;
23370;SDS011;11858;51.056;3.712;2023-06-26T08:09:16;15.20;;;14.30;;
23370;SDS011;11858;51.056;3.712;2023-06-26T08:11:43;15.27;;;14.27;;
23370;SDS011;11858;51.056;3.712;2023-06-26T08:14:09;15.10;;;14.20;;
23370;SDS011;11858;51.056;3.712;2023-06-26T08:16:37;14.32;;;13.52;;
23370;SDS011;11858;51.056;3.712;2023-06-26T08:19:06;13.82;;;13.02;;
23370;SDS011;11858;51.056;3.712;2023-06-26T08:21:33;14.77;;;13.88;;
23370;SDS011;11858;51.056;3.712;2023-06-26T08:23:58;14.75;;;13.85;;
23370;SDS011;11858;51.056;3.712;2023-06-26T08:26:24;14.82;;;13.93;;
23370;SDS011;11858;51.056;3.712;2023-06-26T08:28:50;16.08;;;14.95;;
23370;SDS011;11858;51.056;3.712;2023-06-26T08:31:16;16.05;;;15.07;;
23370;SDS011;11858;51.056;3.712;2023-06-26T08:33:42;16.67;;;15.55;;
23370;SDS011;11858;51.056;3.712;2023-06-26T08:36:07;16.30;;;14.73;;
23370;SDS011;11858;51.056;3.712;2023-06-26T08:38:33;14.88;;;14.02;;
23370;SDS011;11858;51.056;3.712;2023-06-26T08:40:59;14.70;;;13.90;;
23370;SDS011;11858;51.056;3.712;2023-06-26T08:43:25;16.30;;;14.98;;
23370;SDS011;11858;51.056;3.712;2023-06-26T08:45:52;15.70;;;14.80;;
23370;SDS011;11858;51.056;3.712;2023-06-26T08:48:18;15.45;;;14.55;;
23370;SDS011;11858;51.056;3.712;2023-06-26T08:50:45;16.38;;;15.20;;
23370;SDS011;11858;51.056;3.712;2023-06-26T08:53:18;16.00;;;14.82;;
23370;SDS011;11858;51.056;3.712;2023-06-26T08:56:08;15.38;;;14.48;;
23370;SDS011;11858;51.056;3.712;2023-06-26T08:58:35;15.13;;;14.23;;
23370;SDS011;11858;51.056;3.712;2023-06-26T09:01:02;16.30;;;15.30;;
23370;SDS011;11858;51.056;3.712;2023-06-26T09:03:30;16.98;;;15.50;;
23370;SDS011;11858;51.056;3.712;2023-06-26T09:05:56;15.52;;;14.52;;
23370;SDS011;11858;51.056;3.712;2023-06-26T09:08:22;15.75;;;14.80;;
23370;SDS011;11858;51.056;3.712;2023-06-26T09:10:48;15.55;;;14.65;;
23370;SDS011;11858;51.056;3.712;2023-06-26T09:13:13;15.63;;;14.73;;
23370;SDS011;11858;51.056;3.712;2023-06-26T09:15:43;14.80;;;14.00;;
23370;SDS011;11858;51.056;3.712;2023-06-26T09:18:09;15.40;;;14.50;;
23370;SDS011;11858;51.056;3.712;2023-06-26T09:20:35;14.60;;;13.80;;
23370;SDS011;11858;51.056;3.712;2023-06-26T09:23:01;15.00;;;14.10;;
23370;SDS011;11858;51.056;3.712;2023-06-26T09:25:27;15.70;;;14.43;;
23370;SDS011;11858;51.056;3.712;2023-06-26T09:27:53;16.85;;;15.60;;
23370;SDS011;11858;51.056;3.712;2023-06-26T09:30:20;16.20;;;15.10;;
23370;SDS011;11858;51.056;3.712;2023-06-26T09:32:46;15.57;;;14.55;;
23370;SDS011;11858;51.056;3.712;2023-06-26T09:35:12;15.23;;;14.32;;
23370;SDS011;11858;51.056;3.712;2023-06-26T09:37:37;14.80;;;14.00;;
23370;SDS011;11858;51.056;3.712;2023-06-26T09:40:03;15.60;;;14.70;;
23370;SDS011;11858;51.056;3.712;2023-06-26T09:42:30;15.13;;;14.23;;
23370;SDS011;11858;51.056;3.712;2023-06-26T09:44:56;26.10;;;14.73;;
23370;SDS011;11858;51.056;3.712;2023-06-26T09:47:22;15.73;;;14.82;;
23370;SDS011;11858;51.056;3.712;2023-06-26T09:49:48;16.05;;;14.80;;
23370;SDS011;11858;51.056;3.712;2023-06-26T09:52:15;14.90;;;14.10;;
23370;SDS011;11858;51.056;3.712;2023-06-26T09:54:42;15.20;;;14.30;;
23370;SDS011;11858;51.056;3.712;2023-06-26T09:57:10;16.00;;;14.80;;
23370;SDS011;11858;51.056;3.712;2023-06-26T09:59:37;14.70;;;13.90;;
23370;SDS011;11858;51.056;3.712;2023-06-26T10:02:03;15.60;;;14.70;;
23370;SDS011;11858;51.056;3.712;2023-06-26T10:04:29;14.43;;;13.43;;
23370;SDS011;11858;51.056;3.712;2023-06-26T10:06:55;14.23;;;13.43;;
23370;SDS011;11858;51.056;3.712;2023-06-26T10:09:23;15.20;;;14.30;;
23370;SDS011;11858;51.056;3.712;2023-06-26T10:14:22;15.15;;;14.25;;
23370;SDS011;11858;51.056;3.712;2023-06-26T10:16:51;16.00;;;15.00;;
23370;SDS011;11858;51.056;3.712;2023-06-26T10:19:18;15.27;;;14.38;;
23370;SDS011;11858;51.056;3.712;2023-06-26T10:21:53;15.35;;;14.45;;
23370;SDS011;11858;51.056;3.712;2023-06-26T10:24:20;15.80;;;14.80;;
23370;SDS011;11858;51.056;3.712;2023-06-26T10:26:49;16.33;;;15.35;;
23370;SDS011;11858;51.056;3.712;2023-06-26T10:29:17;16.40;;;15.30;;
23370;SDS011;11858;51.056;3.712;2023-06-26T10:31:47;15.30;;;14.40;;
23370;SDS011;11858;51.056;3.712;2023-06-26T10:34:15;14.55;;;13.75;;
23370;SDS011;11858;51.056;3.712;2023-06-26T10:36:41;14.57;;;13.77;;
23370;SDS011;11858;51.056;3.712;2023-06-26T10:39:07;14.20;;;13.40;;
23370;SDS011;11858;51.056;3.712;2023-06-26T10:41:36;14.40;;;13.48;;
23370;SDS011;11858;51.056;3.712;2023-06-26T10:44:07;14.50;;;13.70;;
23370;SDS011;11858;51.056;3.712;2023-06-26T10:46:52;16.27;;;15.27;;
23370;SDS011;11858;51.056;3.712;2023-06-26T10:49:20;15.00;;;14.10;;
23370;SDS011;11858;51.056;3.712;2023-06-26T10:51:49;14.63;;;13.82;;
23370;SDS011;11858;51.056;3.712;2023-06-26T10:54:16;15.07;;;14.18;;
23370;SDS011;11858;51.056;3.712;2023-06-26T10:56:45;13.90;;;13.07;;
23370;SDS011;11858;51.056;3.712;2023-06-26T10:59:19;14.25;;;13.45;;
23370;SDS011;11858;51.056;3.712;2023-06-26T11:01:46;14.13;;;13.32;;
23370;SDS011;11858;51.056;3.712;2023-06-26T11:12:38;13.80;;;13.02;;
23370;SDS011;11858;51.056;3.712;2023-06-26T11:15:16;14.25;;;13.45;;
23370;SDS011;11858;51.056;3.712;2023-06-26T11:17:43;15.27;;;14.27;;
23370;SDS011;11858;51.056;3.712;2023-06-26T11:20:10;14.38;;;13.50;;
23370;SDS011;11858;51.056;3.712;2023-06-26T11:22:38;15.15;;;14.35;;
23370;SDS011;11858;51.056;3.712;2023-06-26T11:25:06;14.98;;;14.18;;
23370;SDS011;11858;51.056;3.712;2023-06-26T11:27:39;15.40;;;14.50;;
23370;SDS011;11858;51.056;3.712;2023-06-26T11:30:06;14.65;;;13.85;;
23370;SDS011;11858;51.056;3.712;2023-06-26T11:32:34;14.98;;;14.07;;
23370;SDS011;11858;51.056;3.712;2023-06-26T11:35:01;14.90;;;13.80;;
23370;SDS011;11858;51.056;3.712;2023-06-26T11:37:26;16.88;;;15.35;;
23370;SDS011;11858;51.056;3.712;2023-06-26T11:39:52;14.35;;;13.55;;
23370;SDS011;11858;51.056;3.712;2023-06-26T11:42:19;14.68;;;13.88;;
23370;SDS011;11858;51.056;3.712;2023-06-26T11:44:45;15.07;;;14.23;;
23370;SDS011;11858;51.056;3.712;2023-06-26T11:47:15;16.25;;;14.77;;
23370;SDS011;11858;51.056;3.712;2023-06-26T11:49:42;15.70;;;14.80;;
23370;SDS011;11858;51.056;3.712;2023-06-26T11:52:12;15.90;;;14.95;;
23370;SDS011;11858;51.056;3.712;2023-06-26T11:54:38;14.95;;;14.07;;
23370;SDS011;11858;51.056;3.712;2023-06-26T11:57:04;16.77;;;15.40;;
23370;SDS011;11858;51.056;3.712;2023-06-26T11:59:34;15.90;;;15.00;;
23370;SDS011;11858;51.056;3.712;2023-06-26T12:02:04;15.30;;;14.40;;
23370;SDS011;11858;51.056;3.712;2023-06-26T12:04:31;15.18;;;14.27;;
23370;SDS011;11858;51.056;3.712;2023-06-26T12:06:59;13.80;;;13.07;;
23370;SDS011;11858;51.056;3.712;2023-06-26T12:09:25;14.52;;;13.52;;
23370;SDS011;11858;51.056;3.712;2023-06-26T12:11:53;14.27;;;13.27;;
23370;SDS011;11858;51.056;3.712;2023-06-26T12:14:21;14.00;;;13.20;;
23370;SDS011;11858;51.056;3.712;2023-06-26T12:16:48;15.27;;;14.27;;
23370;SDS011;11858;51.056;3.712;2023-06-26T12:19:14;15.60;;;14.70;;
23370;SDS011;11858;51.056;3.712;2023-06-26T12:24:06;15.40;;;14.07;;
23370;SDS011;11858;51.056;3.712;2023-06-26T12:26:34;14.45;;;13.65;;
23370;SDS011;11858;51.056;3.712;2023-06-26T12:29:06;14.00;;;13.20;;
23370;SDS011;11858;51.056;3.712;2023-06-26T12:31:33;14.55;;;13.75;;
23370;SDS011;11858;51.056;3.712;2023-06-26T12:34:00;14.45;;;13.65;;
23370;SDS011;11858;51.056;3.712;2023-06-26T12:36:26;14.48;;;13.68;;
23370;SDS011;11858;51.056;3.712;2023-06-26T12:38:53;14.80;;;13.90;;
23370;SDS011;11858;51.056;3.712;2023-06-26T12:41:19;14.40;;;13.60;;
23370;SDS011;11858;51.056;3.712;2023-06-26T12:43:46;18.17;;;16.80;;
23370;SDS011;11858;51.056;3.712;2023-06-26T12:46:11;13.60;;;12.90;;
23370;SDS011;11858;51.056;3.712;2023-06-26T12:48:38;15.10;;;14.20;;
23370;SDS011;11858;51.056;3.712;2023-06-26T12:51:09;15.30;;;14.40;;
23370;SDS011;11858;51.056;3.712;2023-06-26T12:53:35;15.43;;;14.52;;
23370;SDS011;11858;51.056;3.712;2023-06-26T12:56:01;15.50;;;14.60;;
23370;SDS011;11858;51.056;3.712;2023-06-26T12:58:27;15.48;;;14.48;;
23370;SDS011;11858;51.056;3.712;2023-06-26T13:00:53;17.65;;;16.45;;
23370;SDS011;11858;51.056;3.712;2023-06-26T13:03:19;14.60;;;13.80;;
23370;SDS011;11858;51.056;3.712;2023-06-26T13:05:47;15.05;;;14.15;;
23370;SDS011;11858;51.056;3.712;2023-06-26T13:08:13;15.25;;;14.35;;
23370;SDS011;11858;51.056;3.712;2023-06-26T13:10:42;16.20;;;15.10;;
23370;SDS011;11858;51.056;3.712;2023-06-26T13:13:09;15.35;;;14.45;;
23370;SDS011;11858;51.056;3.712;2023-06-26T13:15:35;14.60;;;13.80;;
23370;SDS011;11858;51.056;3.712;2023-06-26T13:18:01;15.10;;;14.20;;
23370;SDS011;11858;51.056;3.712;2023-06-26T13:20:27;14.60;;;13.80;;
23370;SDS011;11858;51.056;3.712;2023-06-26T13:22:53;15.45;;;14.55;;
23370;SDS011;11858;51.056;3.712;2023-06-26T13:25:19;15.10;;;14.20;;
23370;SDS011;11858;51.056;3.712;2023-06-26T13:27:45;15.27;;;14.38;;
23370;SDS011;11858;51.056;3.712;2023-06-26T13:30:11;14.88;;;14.07;;
23370;SDS011;11858;51.056;3.712;2023-06-26T13:32:37;15.20;;;14.30;;
23370;SDS011;11858;51.056;3.712;2023-06-26T13:35:03;15.40;;;14.50;;
23370;SDS011;11858;51.056;3.712;2023-06-26T13:37:29;15.40;;;14.50;;
23370;SDS011;11858;51.056;3.712;2023-06-26T13:39:55;14.00;;;13.20;;
23370;SDS011;11858;51.056;3.712;2023-06-26T13:42:20;14.73;;;13.93;;
23370;SDS011;11858;51.056;3.712;2023-06-26T13:44:46;14.75;;;13.90;;
23370;SDS011;11858;51.056;3.712;2023-06-26T13:47:12;14.55;;;13.75;;
23370;SDS011;11858;51.056;3.712;2023-06-26T13:49:39;15.00;;;14.20;;
23370;SDS011;11858;51.056;3.712;2023-06-26T13:52:05;14.48;;;13.68;;
23370;SDS011;11858;51.056;3.712;2023-06-26T13:54:34;14.40;;;13.60;;
23370;SDS011;11858;51.056;3.712;2023-06-26T13:57:01;15.30;;;14.30;;
23370;SDS011;11858;51.056;3.712;2023-06-26T13:59:28;14.90;;;14.10;;
23370;SDS011;11858;51.056;3.712;2023-06-26T14:01:54;14.82;;;13.93;;
23370;SDS011;11858;51.056;3.712;2023-06-26T14:04:20;49.80;;;14.75;;
23370;SDS011;11858;51.056;3.712;2023-06-26T14:06:46;16.77;;;15.77;;
23370;SDS011;11858;51.056;3.712;2023-06-26T14:09:11;16.50;;;15.50;;
23370;SDS011;11858;51.056;3.712;2023-06-26T14:11:37;17.00;;;16.00;;
23370;SDS011;11858;51.056;3.712;2023-06-26T14:14:02;18.02;;;16.85;;
23370;SDS011;11858;51.056;3.712;2023-06-26T14:16:28;16.67;;;15.77;;
23370;SDS011;11858;51.056;3.712;2023-06-26T14:18:54;16.05;;;15.15;;
23370;SDS011;11858;51.056;3.712;2023-06-26T14:21:20;16.33;;;15.43;;
23370;SDS011;11858;51.056;3.712;2023-06-26T14:23:46;16.30;;;15.40;;
23370;SDS011;11858;51.056;3.712;2023-06-26T14:26:12;16.48;;;15.57;;
23370;SDS011;11858;51.056;3.712;2023-06-26T14:28:38;16.05;;;15.15;;
23370;SDS011;11858;51.056;3.712;2023-06-26T14:31:04;16.08;;;15.20;;
23370;SDS011;11858;51.056;3.712;2023-06-26T14:33:30;15.23;;;14.43;;
23370;SDS011;11858;51.056;3.712;2023-06-26T14:35:56;16.15;;;15.25;;
23370;SDS011;11858;51.056;3.712;2023-06-26T14:38:21;17.00;;;16.00;;
23370;SDS011;11858;51.056;3.712;2023-06-26T14:40:47;16.88;;;15.88;;
23370;SDS011;11858;51.056;3.712;2023-06-26T14:43:13;17.45;;;16.45;;
23370;SDS011;11858;51.056;3.712;2023-06-26T14:45:38;17.23;;;16.23;;
23370;SDS011;11858;51.056;3.712;2023-06-26T14:48:04;17.30;;;16.30;;